Time,TemperatureF,DewpointF,PressureIn,WindDirection,WindDirectionDegrees,WindSpeedMPH,WindSpeedGustMPH,Humidity,HourlyPrecipIn,Conditions,Clouds,dailyrainin,SoftwareType,DateUTC
2013-06-15 00:29:00,65.3,61.0,29.97,North,353,0.0,0.0,87,0.00,,,0.00,weatherlink.com 1.10,2013-06-15 04:29:00,
2013-06-15 00:41:00,65.0,62.0,29.97,North,353,0.0,0.0,89,0.00,,,0.00,weatherlink.com 1.10,2013-06-15 04:41:00,
2013-06-15 00:56:00,64.2,61.0,29.97,North,353,0.0,0.0,89,0.00,,,0.00,weatherlink.com 1.10,2013-06-15 04:56:00,
2013-06-15 01:11:00,63.5,61.0,29.97,North,352,0.0,0.0,90,0.00,,,0.00,weatherlink.com 1.10,2013-06-15 05:11:00,
2013-06-15 01:26:00,62.8,60.0,29.97,North,354,0.0,0.0,91,0.00,,,0.00,weatherlink.com 1.10,2013-06-15 05:26:00,
2013-06-15 01:41:00,63.3,62.0,29.98,North,354,0.0,0.0,94,0.00,,,0.00,weatherlink.com 1.10,2013-06-15 05:41:00,
2013-06-15 01:56:00,63.7,62.0,29.98,North,354,0.0,0.0,94,0.00,,,0.00,weatherlink.com 1.10,2013-06-15 05:56:00,
2013-06-15 02:11:00,63.5,62.0,29.97,North,353,0.0,0.0,93,0.00,,,0.00,weatherlink.com 1.10,2013-06-15 06:11:00,
2013-06-15 02:26:00,62.5,61.0,29.98,North,354,0.0,0.0,93,0.00,,,0.00,weatherlink.com 1.10,2013-06-15 06:26:00,
2013-06-15 02:41:00,63.5,62.0,29.99,North,353,0.0,0.0,95,0.00,,,0.00,weatherlink.com 1.10,2013-06-15 06:41:00,
2013-06-15 02:56:00,63.4,62.0,29.99,North,354,0.0,0.0,94,0.00,,,0.00,weatherlink.com 1.10,2013-06-15 06:56:00,
2013-06-15 03:11:00,62.6,61.0,29.99,North,354,0.0,0.0,94,0.00,,,0.00,weatherlink.com 1.10,2013-06-15 07:11:00,
2013-06-15 03:26:00,61.8,60.0,29.99,North,354,0.0,0.0,94,0.00,,,0.00,weatherlink.com 1.10,2013-06-15 07:26:00,
2013-06-15 03:41:00,61.0,59.0,29.98,North,354,0.0,0.0,94,0.00,,,0.00,weatherlink.com 1.10,2013-06-15 07:41:00,
2013-06-15 03:56:00,60.8,59.0,29.98,North,354,0.0,0.0,95,0.00,,,0.00,weatherlink.com 1.10,2013-06-15 07:56:00,
2013-06-15 04:11:00,61.1,60.0,29.97,North,354,0.0,0.0,95,0.00,,,0.00,weatherlink.com 1.10,2013-06-15 08:11:00,
2013-06-15 04:26:00,61.0,60.0,29.98,North,354,0.0,0.0,95,0.00,,,0.00,weatherlink.com 1.10,2013-06-15 08:26:00,
2013-06-15 04:41:00,61.0,60.0,29.98,North,354,0.0,0.0,96,0.00,,,0.00,weatherlink.com 1.10,2013-06-15 08:41:00,
2013-06-15 04:56:00,61.4,60.0,29.98,North,354,0.0,0.0,96,0.00,,,0.00,weatherlink.com 1.10,2013-06-15 08:56:00,
2013-06-15 05:11:00,61.7,61.0,29.98,North,354,0.0,0.0,96,0.00,,,0.00,weatherlink.com 1.10,2013-06-15 09:11:00,
2013-06-15 05:26:00,61.6,61.0,29.98,North,354,0.0,0.0,96,0.00,,,0.00,weatherlink.com 1.10,2013-06-15 09:26:00,
2013-06-15 05:41:00,61.8,61.0,29.98,North,354,0.0,0.0,96,0.00,,,0.00,weatherlink.com 1.10,2013-06-15 09:41:00,
2013-06-15 05:56:00,61.8,61.0,29.99,North,354,0.0,0.0,96,0.00,,,0.00,weatherlink.com 1.10,2013-06-15 09:56:00,
2013-06-15 06:11:00,61.5,60.0,30.00,North,353,0.0,0.0,96,0.00,,,0.00,weatherlink.com 1.10,2013-06-15 10:11:00,
2013-06-15 06:26:00,61.1,60.0,30.01,North,353,0.0,0.0,96,0.00,,,0.00,weatherlink.com 1.10,2013-06-15 10:26:00,
2013-06-15 06:41:00,60.9,60.0,30.01,North,353,0.0,0.0,96,0.00,,,0.00,weatherlink.com 1.10,2013-06-15 10:41:00,
2013-06-15 06:56:00,61.1,60.0,30.01,North,353,0.0,0.0,96,0.00,,,0.00,weatherlink.com 1.10,2013-06-15 10:56:00,
2013-06-15 07:11:00,61.7,61.0,30.01,North,353,0.0,0.0,97,0.00,,,0.00,weatherlink.com 1.10,2013-06-15 11:11:00,
2013-06-15 07:26:00,62.3,62.0,30.02,ESE,103,0.0,0.0,97,0.00,,,0.00,weatherlink.com 1.10,2013-06-15 11:26:00,
2013-06-15 07:41:00,62.9,62.0,30.02,ESE,103,0.0,0.0,96,0.00,,,0.00,weatherlink.com 1.10,2013-06-15 11:41:00,
2013-06-15 07:56:00,63.0,62.0,30.02,ESE,103,0.0,0.0,96,0.00,,,0.00,weatherlink.com 1.10,2013-06-15 11:56:00,
2013-06-15 08:11:00,63.4,62.0,30.03,ESE,103,0.0,0.0,96,0.00,,,0.00,weatherlink.com 1.10,2013-06-15 12:11:00,
2013-06-15 08:26:00,66.6,65.0,30.04,ESE,105,0.0,0.0,95,0.00,,,0.00,weatherlink.com 1.10,2013-06-15 12:26:00,
2013-06-15 08:42:00,69.0,65.0,30.04,ESE,108,0.0,1.0,87,0.00,,,0.00,weatherlink.com 1.10,2013-06-15 12:42:00,
2013-06-15 08:58:00,70.3,65.0,30.04,East,101,0.0,2.0,83,0.00,,,0.00,weatherlink.com 1.10,2013-06-15 12:58:00,
2013-06-15 09:12:00,72.0,64.0,30.04,ESE,114,0.0,2.0,75,0.00,,,0.00,weatherlink.com 1.10,2013-06-15 13:12:00,
2013-06-15 09:27:00,72.8,65.0,30.04,SSW,210,0.0,2.0,77,0.00,,,0.00,weatherlink.com 1.10,2013-06-15 13:27:00,
2013-06-15 09:42:00,74.3,63.0,30.03,WSW,249,0.0,0.0,69,0.00,,,0.00,weatherlink.com 1.10,2013-06-15 13:42:00,
2013-06-15 09:57:00,75.6,65.0,30.02,SE,126,0.0,2.0,69,0.00,,,0.00,weatherlink.com 1.10,2013-06-15 13:57:00,
2013-06-15 10:12:00,75.8,65.0,30.02,East,96,0.0,0.0,70,0.00,,,0.00,weatherlink.com 1.10,2013-06-15 14:12:00,
2013-06-15 10:27:00,76.5,65.0,30.01,WSW,240,0.0,2.0,68,0.00,,,0.00,weatherlink.com 1.10,2013-06-15 14:27:00,
2013-06-15 10:42:00,77.3,65.0,30.00,ESE,123,2.0,6.0,66,0.00,,,0.00,weatherlink.com 1.10,2013-06-15 14:42:00,
2013-06-15 10:57:00,77.9,66.0,29.99,NNE,15,1.0,5.0,66,0.00,,,0.00,weatherlink.com 1.10,2013-06-15 14:57:00,
2013-06-15 11:12:00,78.6,66.0,29.97,East,82,2.0,6.0,65,0.00,,,0.00,weatherlink.com 1.10,2013-06-15 15:12:00,
2013-06-15 11:27:00,79.3,65.0,29.95,SE,129,2.0,7.0,61,0.00,,,0.00,weatherlink.com 1.10,2013-06-15 15:27:00,
2013-06-15 11:42:00,79.4,65.0,29.93,ESE,108,2.0,6.0,62,0.00,,,0.00,weatherlink.com 1.10,2013-06-15 15:42:00,
2013-06-15 11:57:00,78.8,64.0,29.93,South,188,1.0,9.0,60,0.00,,,0.00,weatherlink.com 1.10,2013-06-15 15:57:00,
2013-06-15 12:12:00,79.6,64.0,29.94,North,6,1.0,7.0,59,0.00,,,0.00,weatherlink.com 1.10,2013-06-15 16:12:00,
2013-06-15 12:27:00,80.1,63.0,29.96,SW,235,2.0,8.0,56,0.00,,,0.00,weatherlink.com 1.10,2013-06-15 16:27:00,
2013-06-15 12:42:00,80.7,65.0,29.96,SW,229,2.0,8.0,59,0.00,,,0.00,weatherlink.com 1.10,2013-06-15 16:42:00,
2013-06-15 12:57:00,81.3,65.0,29.96,East,89,3.0,8.0,57,0.00,,,0.00,weatherlink.com 1.10,2013-06-15 16:57:00,
2013-06-15 13:12:00,81.6,63.0,29.95,NE,37,1.0,7.0,54,0.00,,,0.00,weatherlink.com 1.10,2013-06-15 17:12:00,
2013-06-15 13:27:00,82.6,64.0,29.96,West,267,2.0,9.0,53,0.00,,,0.00,weatherlink.com 1.10,2013-06-15 17:27:00,
2013-06-15 13:42:00,82.4,63.0,29.96,ESE,104,0.0,8.0,52,0.00,,,0.00,weatherlink.com 1.10,2013-06-15 17:42:00,
2013-06-15 13:57:00,82.7,66.0,29.95,West,264,1.0,5.0,58,0.00,,,0.00,weatherlink.com 1.10,2013-06-15 17:57:00,
2013-06-15 14:12:00,82.9,63.0,29.96,West,273,1.0,6.0,52,0.00,,,0.00,weatherlink.com 1.10,2013-06-15 18:12:00,
2013-06-15 14:27:00,83.0,64.0,29.96,West,269,1.0,8.0,53,0.00,,,0.00,weatherlink.com 1.10,2013-06-15 18:27:00,
2013-06-15 14:43:00,82.8,61.0,29.95,ESE,115,4.0,12.0,48,0.00,,,0.00,weatherlink.com 1.10,2013-06-15 18:43:00,
2013-06-15 14:58:00,83.5,63.0,29.95,South,176,1.0,5.0,51,0.00,,,0.00,weatherlink.com 1.10,2013-06-15 18:58:00,
2013-06-15 15:13:00,83.6,64.0,29.95,ENE,63,1.0,5.0,52,0.00,,,0.00,weatherlink.com 1.10,2013-06-15 19:13:00,
2013-06-15 15:28:00,82.8,62.0,29.94,East,86,1.0,4.0,49,0.00,,,0.00,weatherlink.com 1.10,2013-06-15 19:28:00,
2013-06-15 15:43:00,81.8,65.0,29.94,NE,55,0.0,2.0,56,0.00,,,0.00,weatherlink.com 1.10,2013-06-15 19:43:00,
2013-06-15 15:58:00,84.1,65.0,29.93,SSW,212,0.0,3.0,53,0.00,,,0.00,weatherlink.com 1.10,2013-06-15 19:58:00,
2013-06-15 16:13:00,83.1,61.0,29.94,North,11,2.0,5.0,48,0.00,,,0.00,weatherlink.com 1.10,2013-06-15 20:13:00,
2013-06-15 16:28:00,83.0,63.0,29.94,ENE,72,0.0,6.0,51,0.00,,,0.00,weatherlink.com 1.10,2013-06-15 20:28:00,
2013-06-15 16:43:00,83.2,63.0,29.94,SW,226,1.0,1.0,51,0.00,,,0.00,weatherlink.com 1.10,2013-06-15 20:43:00,
2013-06-15 16:58:00,83.7,63.0,29.95,North,1,2.0,5.0,49,0.00,,,0.00,weatherlink.com 1.10,2013-06-15 20:58:00,
2013-06-15 17:13:00,84.2,62.0,29.95,ESE,108,0.0,4.0,48,0.00,,,0.00,weatherlink.com 1.10,2013-06-15 21:13:00,
2013-06-15 17:28:00,84.6,64.0,29.94,SSW,198,2.0,4.0,50,0.00,,,0.00,weatherlink.com 1.10,2013-06-15 21:28:00,
2013-06-15 17:43:00,85.1,66.0,29.93,ESE,117,1.0,2.0,53,0.00,,,0.00,weatherlink.com 1.10,2013-06-15 21:43:00,
2013-06-15 17:58:00,84.2,63.0,29.92,East,88,1.0,3.0,49,0.00,,,0.00,weatherlink.com 1.10,2013-06-15 21:58:00,
2013-06-15 18:13:00,84.0,62.0,29.91,NE,48,1.0,4.0,47,0.00,,,0.00,weatherlink.com 1.10,2013-06-15 22:13:00,
2013-06-15 18:28:00,83.5,63.0,29.91,ENE,70,0.0,3.0,50,0.00,,,0.00,weatherlink.com 1.10,2013-06-15 22:28:00,
2013-06-15 18:43:00,83.5,62.0,29.89,WNW,288,1.0,1.0,49,0.00,,,0.00,weatherlink.com 1.10,2013-06-15 22:43:00,
2013-06-15 18:58:00,82.7,62.0,29.87,NE,51,0.0,3.0,50,0.00,,,0.00,weatherlink.com 1.10,2013-06-15 22:58:00,
2013-06-15 19:13:00,81.5,62.0,29.87,East,99,3.0,6.0,52,0.00,,,0.00,weatherlink.com 1.10,2013-06-15 23:13:00,
2013-06-15 19:28:00,80.5,64.0,29.87,ESE,111,0.0,2.0,57,0.00,,,0.00,weatherlink.com 1.10,2013-06-15 23:28:00,
2013-06-15 19:43:00,80.4,64.0,29.87,SSE,160,0.0,2.0,57,0.00,,,0.00,weatherlink.com 1.10,2013-06-15 23:43:00,
2013-06-15 19:58:00,79.7,63.0,29.88,SE,135,0.0,1.0,57,0.00,,,0.00,weatherlink.com 1.10,2013-06-15 23:58:00,
2013-06-15 20:13:00,78.5,64.0,29.88,SE,136,0.0,0.0,61,0.00,,,0.00,weatherlink.com 1.10,2013-06-16 00:13:00,
2013-06-15 20:28:00,76.9,64.0,29.88,SE,135,0.0,0.0,64,0.00,,,0.00,weatherlink.com 1.10,2013-06-16 00:28:00,
2013-06-15 20:43:00,75.6,64.0,29.88,SE,129,0.0,0.0,67,0.00,,,0.00,weatherlink.com 1.10,2013-06-16 00:43:00,
2013-06-15 20:58:00,75.7,64.0,29.89,East,91,0.0,1.0,66,0.00,,,0.00,weatherlink.com 1.10,2013-06-16 00:58:00,
2013-06-15 21:13:00,74.5,64.0,29.89,SSE,153,0.0,2.0,69,0.00,,,0.00,weatherlink.com 1.10,2013-06-16 01:13:00,
2013-06-15 21:28:00,74.1,63.0,29.89,SE,128,0.0,2.0,69,0.00,,,0.00,weatherlink.com 1.10,2013-06-16 01:28:00,
2013-06-15 21:43:00,74.2,63.0,29.89,East,96,1.0,3.0,68,0.00,,,0.00,weatherlink.com 1.10,2013-06-16 01:43:00,
2013-06-15 21:58:00,74.4,63.0,29.89,ESE,108,1.0,1.0,67,0.00,,,0.00,weatherlink.com 1.10,2013-06-16 01:58:00,
2013-06-15 22:13:00,74.1,62.0,29.89,East,93,0.0,0.0,67,0.00,,,0.00,weatherlink.com 1.10,2013-06-16 02:13:00,
2013-06-15 22:28:00,73.7,62.0,29.90,East,82,0.0,0.0,67,0.00,,,0.00,weatherlink.com 1.10,2013-06-16 02:28:00,
2013-06-15 22:43:00,73.6,62.0,29.90,East,84,0.0,0.0,67,0.00,,,0.00,weatherlink.com 1.10,2013-06-16 02:43:00,
2013-06-15 22:58:00,73.4,62.0,29.90,SE,129,0.0,0.0,67,0.00,,,0.00,weatherlink.com 1.10,2013-06-16 02:58:00,
2013-06-15 23:13:00,73.4,62.0,29.90,SE,131,0.0,0.0,67,0.00,,,0.00,weatherlink.com 1.10,2013-06-16 03:13:00,
2013-06-15 23:28:00,72.4,63.0,29.90,SE,126,0.0,0.0,71,0.00,,,0.00,weatherlink.com 1.10,2013-06-16 03:28:00,
2013-06-15 23:43:00,71.5,62.0,29.90,SE,125,0.0,0.0,73,0.00,,,0.00,weatherlink.com 1.10,2013-06-16 03:43:00,
2013-06-15 23:59:00,72.6,61.0,29.91,ENE,77,2.0,3.0,68,0.00,,,0.00,weatherlink.com 1.10,2013-06-16 03:59:00,